Elm Grove, New York
Current Conditions -  °F | °C
As of 12:53 PM on Friday 28 Nov 2014 (Local Time) from KBGM Reporting Station
Overcast Overcast  
Wind Chill: 19°   Ceiling: 3600
Heat Index: 29°   Visibility: 10mi
Dew Point: 11°   Wind: 13mph
Humidity: 47%   Direction: 290°WNW
Pressure: 30.12"   Gusts: NA
Location:  42.542°N, 75.2578°W
Report Text: KBGM 281753Z 29011KT 10SM OVC036 M02/M12 A3012 RMK AO2 SLP222 60000 T10171117 10022 21056 58005
Loading
Personal Weather Stations






























Interactive Weather Map New forecast layout! Learn more

10-Day Weather Forecast

Advertisements
Track Severe Weather on mobile